Time;durP1;ratioP1;P1;durP2;ratioP2;P2;SDS_P1;SDS_P2;PMS_P1;PMS_P2;Temp;Humidity;BMP_temperature;BMP_pressure;BME280_temperature;BME280_humidity;BME280_pressure;Samples;Min_cycle;Max_cycle;Signal;HPM_P1;HPM_P2
2023/04/27 04:05:57;;;;;;;8.38;5.20;;;;;;;7.24;69.69;100807.75;5616742;31;90077;-56
2023/04/27 04:08:59;;;;;;;8.15;4.28;;;;;;;7.24;69.69;100807.75;5598931;31;34305;-56
2023/04/27 04:12:02;;;;;;;9.20;4.43;;;;;;;6.85;66.56;100817.59;5583855;31;33268;-55
2023/04/27 04:15:06;;;;;;;8.63;4.40;;;;;;;6.72;76.17;100823.25;5581894;31;33625;-55
2023/04/27 04:18:08;;;;;;;7.25;4.45;;;;;;;6.82;68.69;100826.09;5582844;31;33265;-56
2023/04/27 04:21:11;;;;;;;8.00;4.57;;;;;;;6.97;68.88;100828.97;5583518;31;34316;-55
2023/04/27 04:24:15;;;;;;;9.38;4.53;;;;;;;6.77;78.83;100839.34;5570922;31;34282;-56
2023/04/27 04:27:17;;;;;;;7.80;4.47;;;;;;;6.74;63.90;100831.84;5575135;32;33101;-56
2023/04/27 04:30:21;;;;;;;7.47;4.80;;;;;;;6.93;72.07;100841.19;5582291;31;33557;-56
2023/04/27 04:33:25;;;;;;;8.93;4.75;;;;;;;6.92;69.13;100841.41;5583387;31;34372;-55
2023/04/27 04:36:27;;;;;;;10.65;4.57;;;;;;;6.81;62.72;100838.59;5583188;32;33659;-54
2023/04/27 04:39:33;;;;;;;12.65;4.70;;;;;;;7.02;63.22;100844.25;5582728;31;33353;-56
2023/04/27 04:42:36;;;;;;;7.70;4.50;;;;;;;7.07;71.28;100845.12;5583310;31;34356;-56
2023/04/27 04:45:39;;;;;;;6.85;4.68;;;;;;;7.04;62.31;100848.28;5582527;31;32267;-56
2023/04/27 04:48:41;;;;;;;9.05;4.78;;;;;;;7.20;61.05;100851.16;5583241;32;33665;-56
2023/04/27 04:51:46;;;;;;;7.22;4.12;;;;;;;7.43;59.15;100850.94;5575886;31;33339;-55
2023/04/27 04:54:51;;;;;;;8.90;4.62;;;;;;;7.37;62.93;100846.59;5563281;32;33700;-56
2023/04/27 04:57:55;;;;;;;9.10;4.85;;;;;;;7.54;76.84;100850.00;5563505;32;33638;-56
2023/04/27 05:00:57;;;;;;;7.03;4.78;;;;;;;7.60;61.96;100855.41;5568212;32;33675;-55
2023/04/27 05:04:01;;;;;;;7.65;4.40;;;;;;;7.69;76.20;100859.25;5580251;31;33880;-56
2023/04/27 05:07:05;;;;;;;10.15;4.93;;;;;;;7.90;70.27;100860.28;5582731;32;33660;-55
2023/04/27 05:10:08;;;;;;;11.18;4.75;;;;;;;7.85;59.73;100863.72;5580931;31;33636;-56
2023/04/27 05:13:10;;;;;;;9.68;5.35;;;;;;;7.83;59.87;100865.81;5582165;31;33695;-56
2023/04/27 05:16:13;;;;;;;12.75;4.82;;;;;;;7.96;59.10;100860.09;5570219;32;34284;-55
2023/04/27 05:19:17;;;;;;;9.82;4.70;;;;;;;8.15;65.99;100868.56;5569824;32;34319;-55
2023/04/27 05:22:19;;;;;;;10.20;5.15;;;;;;;8.28;63.26;100871.88;5570124;32;33569;-55
2023/04/27 05:25:21;;;;;;;13.52;5.60;;;;;;;8.45;61.86;100880.66;5569385;32;33551;-56
2023/04/27 05:28:24;;;;;;;10.77;5.37;;;;;;;8.63;68.58;100877.59;5569657;32;33610;-56
2023/04/27 05:31:26;;;;;;;9.75;4.87;;;;;;;8.86;57.14;100873.75;5569464;32;34398;-56
2023/04/27 05:34:29;;;;;;;12.43;5.45;;;;;;;9.01;57.66;100880.28;5569376;32;33611;-56
2023/04/27 05:37:32;;;;;;;9.18;5.50;;;;;;;9.22;57.54;100887.38;5559782;32;34368;-56
2023/04/27 05:40:34;;;;;;;11.32;5.30;;;;;;;9.16;56.50;100880.38;5550280;32;34311;-56
2023/04/27 05:43:37;;;;;;;11.95;5.68;;;;;;;9.26;56.95;100888.44;5547937;32;34279;-56
2023/04/27 05:46:40;;;;;;;12.40;5.60;;;;;;;9.80;73.12;100890.03;5568320;32;33551;-56
2023/04/27 05:49:43;;;;;;;17.50;6.47;;;;;;;9.95;56.64;100881.28;5568134;32;34069;-55
2023/04/27 05:52:45;;;;;;;16.33;6.20;;;;;;;10.26;57.30;100879.50;5566122;32;33598;-56
2023/04/27 05:55:47;;;;;;;11.45;6.70;;;;;;;10.47;58.84;100881.13;5561733;32;33563;-56
2023/04/27 05:58:50;;;;;;;14.77;6.55;;;;;;;10.78;56.44;100889.19;5569185;32;34053;-56
2023/04/27 06:01:52;;;;;;;12.10;5.53;;;;;;;10.98;54.31;100891.03;5566936;32;33145;-55
2023/04/27 06:04:55;;;;;;;8.38;4.70;;;;;;;11.25;67.97;100890.72;5561012;32;34345;-56
2023/04/27 06:07:57;;;;;;;7.60;4.47;;;;;;;11.64;49.06;100898.13;5558022;32;34258;-55
2023/04/27 06:11:00;;;;;;;6.22;3.90;;;;;;;11.61;50.25;100890.63;5562287;31;33660;-56
2023/04/27 06:14:02;;;;;;;13.68;4.50;;;;;;;11.56;44.11;100893.34;5562933;32;33758;-58
2023/04/27 06:17:05;;;;;;;8.85;4.35;;;;;;;11.73;58.84;100902.66;5565165;32;33686;-58
2023/04/27 06:20:08;;;;;;;6.50;3.33;;;;;;;11.72;48.27;100903.75;5567542;32;33606;-58
2023/04/27 06:23:10;;;;;;;7.07;3.33;;;;;;;11.89;51.51;100903.44;5562822;32;33917;-59
2023/04/27 06:26:12;;;;;;;6.25;3.83;;;;;;;11.98;55.29;100901.75;5564995;32;33784;-58
2023/04/27 06:29:15;;;;;;;6.97;3.03;;;;;;;11.98;47.10;100903.66;5565666;32;33758;-58
2023/04/27 06:32:17;;;;;;;7.00;2.80;;;;;;;11.74;39.84;100906.16;5564156;32;34374;-58
2023/04/27 06:35:20;;;;;;;6.87;3.00;;;;;;;11.58;39.75;100910.78;5563387;32;33769;-58
2023/04/27 06:38:22;;;;;;;5.65;2.75;;;;;;;11.59;45.35;100917.78;5556751;32;34310;-58
2023/04/27 06:41:26;;;;;;;5.65;2.87;;;;;;;11.79;53.04;100913.38;5565355;32;33639;-58
2023/04/27 06:44:28;;;;;;;6.90;3.05;;;;;;;11.83;44.96;100909.09;5564643;32;33655;-57
2023/04/27 06:47:30;;;;;;;6.15;3.20;;;;;;;11.72;43.93;100909.13;5563206;32;33518;-58
2023/04/27 06:50:32;;;;;;;6.57;3.08;;;;;;;11.83;53.40;100920.63;5560792;32;33277;-57
2023/04/27 06:53:35;;;;;;;7.78;2.90;;;;;;;11.76;39.88;100917.44;5561751;32;33695;-58
2023/04/27 06:56:38;;;;;;;6.55;3.42;;;;;;;11.78;38.64;100915.25;5563625;32;34219;-58
2023/04/27 06:59:40;;;;;;;6.62;3.10;;;;;;;12.21;48.66;100910.25;5561951;32;33637;-58
2023/04/27 07:02:42;;;;;;;8.88;3.40;;;;;;;12.38;41.98;100916.09;5567601;32;33676;-58
2023/04/27 07:05:45;;;;;;;4.90;3.05;;;;;;;12.43;40.95;100915.22;5565372;32;33873;-58
2023/04/27 07:08:47;;;;;;;6.55;3.25;;;;;;;12.55;45.19;100921.06;5568131;32;34293;-58
2023/04/27 07:11:50;;;;;;;7.90;3.00;;;;;;;12.56;39.50;100917.28;5565793;32;34346;-58
2023/04/27 07:14:53;;;;;;;6.07;2.87;;;;;;;12.67;48.08;100909.94;5559392;32;33215;-58
2023/04/27 07:17:55;;;;;;;7.85;3.12;;;;;;;12.64;42.65;100918.56;5567316;32;33541;-58
2023/04/27 07:20:57;;;;;;;8.80;3.50;;;;;;;12.64;39.11;100915.88;5564959;32;33649;-58
2023/04/27 07:24:02;;;;;;;5.40;3.12;;;;;;;12.75;43.12;100917.44;5564195;32;33261;-59
2023/04/27 07:27:04;;;;;;;6.70;3.15;;;;;;;12.76;39.12;100919.03;5555443;32;32898;-58
2023/04/27 07:30:08;;;;;;;9.45;3.33;;;;;;;12.61;36.02;100924.50;5556410;32;33616;-58
2023/04/27 07:33:11;;;;;;;7.18;3.00;;;;;;;12.59;39.92;100926.69;5557023;32;33984;-58
2023/04/27 07:36:14;;;;;;;15.75;5.50;;;;;;;12.86;54.45;100931.59;5563626;32;33712;-58
2023/04/27 07:39:17;;;;;;;14.27;4.72;;;;;;;12.97;49.85;100929.63;5565367;32;34235;-58
2023/04/27 07:42:23;;;;;;;11.65;4.93;;;;;;;13.21;45.20;100927.78;5563352;32;33114;-58
2023/04/27 07:45:36;;;;;;;8.93;3.40;;;;;;;13.25;43.52;100936.94;5566091;32;33194;-58
2023/04/27 07:48:39;;;;;;;16.48;4.28;;;;;;;13.33;42.94;100924.72;5567724;32;33639;-58
2023/04/27 07:51:41;;;;;;;5.43;2.20;;;;;;;13.49;44.49;100922.69;5566057;32;34335;-58
2023/04/27 07:54:44;;;;;;;4.75;2.40;;;;;;;12.84;31.85;100912.22;5566120;32;33591;-58
2023/04/27 07:57:46;;;;;;;45.03;9.45;;;;;;;12.87;40.36;100917.03;5565996;32;33610;-58
2023/04/27 08:00:49;;;;;;;5.65;3.08;;;;;;;13.19;39.22;100923.78;5563674;32;34276;-58
2023/04/27 08:03:51;;;;;;;9.95;3.20;;;;;;;13.33;44.75;100914.75;5562367;32;35077;-58
2023/04/27 08:06:54;;;;;;;11.25;3.30;;;;;;;13.44;39.88;100926.22;5549978;32;33751;-58
2023/04/27 08:09:57;;;;;;;5.22;2.80;;;;;;;13.58;48.29;100918.28;5555343;32;33392;-58
2023/04/27 08:13:02;;;;;;;9.35;2.92;;;;;;;13.58;37.44;100919.06;5561358;32;33552;-58
2023/04/27 08:16:05;;;;;;;4.18;2.17;;;;;;;13.71;35.86;100925.66;5554156;32;33619;-56
2023/04/27 08:19:08;;;;;;;4.60;2.50;;;;;;;13.32;32.91;100915.06;5549161;32;34252;-55
2023/04/27 08:22:11;;;;;;;5.60;2.50;;;;;;;13.11;50.28;100914.41;5561171;32;33685;-56
2023/04/27 08:25:13;;;;;;;6.12;2.87;;;;;;;13.29;45.16;100929.88;5563601;32;34242;-56
2023/04/27 08:28:16;;;;;;;6.75;2.90;;;;;;;13.38;45.92;100913.91;5564487;32;33623;-55
2023/04/27 08:31:18;;;;;;;4.00;2.55;;;;;;;13.61;44.14;100923.91;5562935;32;33604;-56
2023/04/27 08:34:21;;;;;;;7.20;2.45;;;;;;;13.74;37.12;100927.78;5560016;32;33630;-56
2023/04/27 08:37:23;;;;;;;5.50;2.40;;;;;;;13.71;44.98;100922.97;5557254;32;32356;-56
2023/04/27 08:40:26;;;;;;;6.85;2.22;;;;;;;13.93;38.65;100913.53;5552753;32;33511;-57
2023/04/27 08:43:34;;;;;;;6.45;2.55;;;;;;;13.79;37.08;100911.53;5557936;32;33238;-55
2023/04/27 08:46:37;;;;;;;5.90;2.20;;;;;;;13.82;35.29;100915.56;5551955;32;33149;-56
2023/04/27 08:49:42;;;;;;;6.78;2.83;;;;;;;13.86;33.19;100914.69;5558652;32;34303;-56
2023/04/27 08:52:46;;;;;;;5.15;2.40;;;;;;;13.68;36.18;100920.06;5555950;32;33611;-55
2023/04/27 08:55:49;;;;;;;6.15;2.50;;;;;;;13.79;33.85;100914.25;5552858;32;33722;-56
2023/04/27 08:58:51;;;;;;;3.92;2.40;;;;;;;13.89;34.82;100915.22;5552359;32;33148;-56
2023/04/27 09:01:53;;;;;;;8.13;2.67;;;;;;;13.83;33.08;100914.47;5559206;32;33606;-56
2023/04/27 09:04:56;;;;;;;3.90;2.47;;;;;;;13.68;33.13;100915.47;5560144;32;32824;-56
2023/04/27 09:08:07;;;;;;;6.12;2.35;;;;;;;13.43;41.46;100916.53;5559291;32;33529;-56
2023/04/27 09:11:10;;;;;;;5.22;2.55;;;;;;;13.29;32.79;100918.31;5559162;32;34334;-56
2023/04/27 09:14:20;;;;;;;5.50;2.58;;;;;;;13.45;40.63;100909.00;5557886;32;33744;-56
2023/04/27 09:17:25;;;;;;;10.23;2.50;;;;;;;13.51;36.83;100909.72;5559840;32;32399;-55
2023/04/27 09:20:27;;;;;;;5.35;2.55;;;;;;;13.48;34.10;100904.94;5556960;32;33648;-56
2023/04/27 09:23:31;;;;;;;6.80;2.70;;;;;;;13.74;45.40;100908.09;5560191;32;34627;-57
2023/04/27 09:26:33;;;;;;;8.73;2.67;;;;;;;13.97;41.07;100901.91;5555830;32;34304;-56
2023/04/27 09:29:37;;;;;;;6.93;2.55;;;;;;;13.72;33.07;100892.25;5558602;32;33674;-55
2023/04/27 09:32:52;;;;;;;5.55;2.42;;;;;;;13.77;40.31;100891.34;5553677;32;34437;-56
2023/04/27 09:35:56;;;;;;;6.95;2.62;;;;;;;13.78;34.34;100892.97;5553750;32;34372;-56
2023/04/27 09:39:03;;;;;;;5.53;2.58;;;;;;;13.86;35.63;100893.12;5555895;32;33754;-55
2023/04/27 09:42:07;;;;;;;3.97;2.33;;;;;;;14.18;39.42;100890.84;5558809;32;33518;-56
2023/04/27 09:45:10;;;;;;;6.78;2.50;;;;;;;14.44;51.98;100889.38;5554062;32;33736;-56
2023/04/27 09:48:12;;;;;;;5.82;2.62;;;;;;;14.48;36.09;100887.69;5557119;32;33573;-56
2023/04/27 09:51:15;;;;;;;6.97;2.75;;;;;;;14.63;58.36;100880.47;5554875;32;34384;-56
2023/04/27 09:54:18;;;;;;;5.37;2.40;;;;;;;14.09;32.92;100878.00;5549584;32;34354;-56
2023/04/27 09:57:34;;;;;;;6.22;2.60;;;;;;;13.79;36.50;100871.13;5564092;32;33783;-56
2023/04/27 10:00:55;;;;;;;5.87;2.95;;;;;;;14.10;39.49;100874.22;5559275;32;33694;-56
2023/04/27 10:04:06;;;;;;;6.82;3.05;;;;;;;14.00;50.12;100868.94;5559297;32;33412;-56
2023/04/27 10:07:13;;;;;;;6.95;2.55;;;;;;;13.99;35.47;100867.34;5562343;32;33241;-56
2023/04/27 11:17:31;;;;;;;4.93;2.35;;;;;;;14.56;33.62;100835.75;5553551;32;34181;-56
2023/04/27 11:20:33;;;;;;;4.55;2.30;;;;;;;14.49;33.93;100843.41;5561067;32;33663;-56
2023/04/27 11:23:37;;;;;;;6.68;2.45;;;;;;;14.34;32.56;100844.47;5558329;32;33617;-57
2023/04/27 11:26:39;;;;;;;6.62;2.90;;;;;;;14.35;35.73;100842.56;5560514;32;33736;-56
2023/04/27 11:29:41;;;;;;;6.47;2.40;;;;;;;14.29;32.67;100849.12;5564528;32;33682;-56
2023/04/27 11:32:44;;;;;;;6.47;2.78;;;;;;;14.32;32.47;100843.94;5554518;32;33708;-56
2023/04/27 11:35:47;;;;;;;4.37;2.20;;;;;;;14.37;34.57;100840.37;5565973;32;34276;-56
2023/04/27 11:38:49;;;;;;;7.20;2.67;;;;;;;14.34;31.24;100843.66;5567859;32;34385;-56
2023/04/27 11:41:51;;;;;;;6.75;2.72;;;;;;;14.32;32.03;100830.47;5563613;32;32929;-57
2023/04/27 11:44:58;;;;;;;5.32;2.55;;;;;;;14.31;31.42;100825.38;5566581;32;33747;-56
2023/04/27 11:48:02;;;;;;;4.93;2.50;;;;;;;14.41;32.85;100830.59;5565773;32;34291;-56
2023/04/27 11:51:06;;;;;;;4.43;2.40;;;;;;;14.42;31.79;100837.59;5564825;32;33927;-56
2023/04/27 11:54:08;;;;;;;5.55;2.62;;;;;;;14.47;37.79;100824.03;5565676;32;33686;-56
2023/04/27 11:57:12;;;;;;;6.40;2.75;;;;;;;14.58;33.29;100832.78;5559676;32;34431;-56
2023/04/27 12:00:15;;;;;;;5.25;2.55;;;;;;;14.33;31.44;100836.66;5567202;32;33322;-56
2023/04/27 12:03:18;;;;;;;5.75;2.25;;;;;;;14.63;49.51;100839.97;5558996;32;33185;-56
2023/04/27 12:06:27;;;;;;;4.90;2.50;;;;;;;14.47;32.63;100834.81;5563805;32;33643;-56
2023/04/27 12:09:35;;;;;;;5.68;2.50;;;;;;;14.47;33.16;100832.12;5564389;32;33605;-56
2023/04/27 12:12:37;;;;;;;4.12;2.40;;;;;;;14.55;34.03;100836.87;5554379;32;33787;-56
2023/04/27 12:15:41;;;;;;;4.18;2.53;;;;;;;14.49;32.02;100827.22;5558451;32;33686;-56
2023/04/27 12:18:43;;;;;;;6.85;2.33;;;;;;;14.64;31.80;100828.12;5559152;32;33801;-56
2023/04/27 12:21:46;;;;;;;7.55;2.80;;;;;;;14.41;32.08;100827.91;5547949;32;34333;-56
2023/04/27 12:24:49;;;;;;;4.65;2.20;;;;;;;14.19;33.17;100827.72;5554352;32;34338;-56
2023/04/27 12:27:52;;;;;;;4.78;2.33;;;;;;;14.19;32.36;100819.63;5565782;32;33704;-56
2023/04/27 12:30:54;;;;;;;7.25;2.67;;;;;;;14.41;34.55;100822.50;5567829;32;34351;-56
2023/04/27 12:33:56;;;;;;;4.95;2.25;;;;;;;14.60;41.86;100830.56;5569254;32;33634;-56
2023/04/27 12:36:58;;;;;;;4.72;2.40;;;;;;;14.65;33.15;100825.09;5560357;32;34377;-56
2023/04/27 12:40:05;;;;;;;5.93;2.37;;;;;;;14.84;49.26;100810.75;5561239;32;33293;-56
2023/04/27 12:43:08;;;;;;;4.95;2.40;;;;;;;15.02;35.95;100817.97;5568841;32;34199;-56
2023/04/27 12:46:11;;;;;;;5.30;2.30;;;;;;;14.88;31.91;100804.44;5569187;32;34284;-56
2023/04/27 12:49:14;;;;;;;5.93;2.42;;;;;;;14.86;33.45;100816.63;5567836;32;33631;-56
2023/04/27 12:52:17;;;;;;;8.10;2.55;;;;;;;14.94;35.67;100819.47;5569771;32;34428;-56
2023/04/27 12:55:19;;;;;;;4.43;2.50;;;;;;;14.87;35.04;100820.97;5569141;32;34225;-56
2023/04/27 12:58:35;;;;;;;4.95;2.50;;;;;;;14.77;33.18;100819.25;5569561;32;34443;-56
2023/04/27 13:01:38;;;;;;;4.05;2.10;;;;;;;14.61;32.82;100815.22;5568613;32;33682;-56
2023/04/27 13:04:41;;;;;;;4.37;2.42;;;;;;;14.55;38.36;100828.78;5567292;32;33226;-55
2023/04/27 13:07:43;;;;;;;7.60;2.60;;;;;;;14.46;45.88;100819.72;5567085;32;33829;-56
2023/04/27 13:10:46;;;;;;;3.47;2.28;;;;;;;14.62;32.73;100824.91;5569635;31;34278;-56
2023/04/27 13:13:48;;;;;;;7.40;2.65;;;;;;;14.64;32.22;100820.03;5568290;32;33849;-56
2023/04/27 13:16:51;;;;;;;4.97;2.60;;;;;;;14.46;32.58;100822.41;5563903;32;33685;-56
2023/04/27 13:19:53;;;;;;;5.37;2.50;;;;;;;14.55;35.04;100834.16;5550359;32;33704;-56
2023/04/27 13:22:55;;;;;;;5.25;2.65;;;;;;;14.49;31.29;100824.53;5565794;32;33573;-57
2023/04/27 13:25:58;;;;;;;5.00;2.08;;;;;;;14.45;33.83;100826.22;5570027;32;33711;-56
2023/04/27 13:29:03;;;;;;;3.28;2.10;;;;;;;14.72;44.40;100830.13;5569233;32;33656;-57
2023/04/27 13:32:05;;;;;;;5.28;2.30;;;;;;;14.74;36.41;100814.44;5569450;32;33560;-56
2023/04/27 13:35:08;;;;;;;4.40;2.28;;;;;;;14.76;32.64;100820.31;5563989;32;33753;-56
2023/04/27 13:38:10;;;;;;;6.87;2.78;;;;;;;14.76;35.58;100817.63;5555394;32;34216;-56
2023/04/27 13:41:12;;;;;;;8.32;2.55;;;;;;;14.55;33.39;100826.06;5565030;32;33645;-56
2023/04/27 13:44:15;;;;;;;5.07;2.40;;;;;;;14.54;34.79;100829.87;5561029;32;34349;-56
2023/04/27 13:47:18;;;;;;;6.05;2.50;;;;;;;14.69;32.71;100826.09;5566683;32;33631;-56
2023/04/27 13:50:21;;;;;;;6.70;2.40;;;;;;;14.62;34.05;100820.28;5556524;32;33233;-57
2023/04/27 13:53:26;;;;;;;3.42;2.03;;;;;;;14.82;32.11;100823.75;5558612;32;33756;-56
2023/04/27 13:56:28;;;;;;;3.70;2.25;;;;;;;14.81;34.22;100817.53;5569291;32;34421;-55
2023/04/27 13:59:30;;;;;;;5.50;2.40;;;;;;;14.70;30.66;100818.81;5569522;32;34379;-57
2023/04/27 14:02:33;;;;;;;6.40;2.20;;;;;;;14.68;31.31;100816.41;5569449;32;34353;-56
2023/04/27 14:05:35;;;;;;;5.35;2.10;;;;;;;14.72;30.55;100819.31;5569732;32;33615;-55
2023/04/27 14:08:37;;;;;;;9.50;2.65;;;;;;;14.77;31.06;100821.94;5569305;32;34286;-56
2023/04/27 14:11:40;;;;;;;7.68;2.37;;;;;;;14.79;32.24;100823.22;5569197;32;34389;-56
2023/04/27 14:14:58;;;;;;;4.85;2.50;;;;;;;14.83;30.78;100817.22;5569214;32;34272;-57
2023/04/27 14:18:00;;;;;;;8.05;2.53;;;;;;;14.84;31.22;100827.75;5569072;32;34263;-55
2023/04/27 14:21:03;;;;;;;8.30;2.08;;;;;;;14.99;32.12;100824.75;5561913;32;33774;-56
2023/04/27 14:24:06;;;;;;;4.43;1.87;;;;;;;14.97;31.03;100839.66;5565189;32;33734;-56
2023/04/27 14:27:08;;;;;;;7.80;2.35;;;;;;;14.84;31.58;100825.06;5569387;32;33968;-56
2023/04/27 14:30:10;;;;;;;5.10;2.45;;;;;;;14.75;30.27;100837.63;5569442;32;34376;-56
2023/04/27 14:33:13;;;;;;;4.55;1.90;;;;;;;14.74;29.94;100834.13;5569441;32;34365;-56
2023/04/27 14:36:17;;;;;;;6.75;2.25;;;;;;;14.73;34.79;100834.41;5567395;32;34342;-56
2023/04/27 14:39:20;;;;;;;6.00;2.50;;;;;;;14.80;28.93;100841.03;5569120;32;33697;-57
2023/04/27 14:42:22;;;;;;;3.58;2.05;;;;;;;14.69;30.68;100846.91;5556121;32;33595;-56
2023/04/27 14:45:25;;;;;;;4.05;2.05;;;;;;;14.75;33.41;100840.31;5550010;32;33710;-56
2023/04/27 14:48:38;;;;;;;4.30;2.00;;;;;;;14.92;37.67;100845.16;5560303;32;33825;-56
2023/04/27 14:51:40;;;;;;;4.60;2.15;;;;;;;14.99;30.90;100829.34;5568941;32;33349;-56
2023/04/27 14:54:45;;;;;;;7.05;2.28;;;;;;;15.06;31.39;100828.97;5569362;32;34345;-56
2023/04/27 14:57:47;;;;;;;4.95;2.20;;;;;;;14.90;30.10;100829.25;5569200;32;34068;-56
2023/04/27 15:00:50;;;;;;;4.82;2.00;;;;;;;14.87;31.47;100834.47;5569124;32;34283;-56
2023/04/27 15:03:55;;;;;;;5.35;2.00;;;;;;;14.87;29.98;100831.75;5569077;32;33713;-57
2023/04/27 15:06:58;;;;;;;6.97;2.72;;;;;;;14.99;30.86;100838.25;5568767;32;33800;-55
2023/04/27 15:10:00;;;;;;;6.37;2.17;;;;;;;14.94;29.76;100842.97;5568818;31;33724;-55
2023/04/27 15:13:02;;;;;;;6.30;2.30;;;;;;;15.03;37.20;100841.97;5569097;32;34314;-55
2023/04/27 15:16:06;;;;;;;4.75;2.15;;;;;;;15.00;30.92;100839.88;5569085;32;34361;-55
2023/04/27 15:19:08;;;;;;;7.32;2.40;;;;;;;14.87;30.34;100832.56;5569057;32;33459;-56
2023/04/27 15:22:10;;;;;;;5.25;2.30;;;;;;;14.89;30.08;100841.13;5569234;32;33671;-55
2023/04/27 15:25:13;;;;;;;6.75;2.37;;;;;;;14.84;32.07;100838.53;5569157;32;34429;-55
2023/04/27 15:28:16;;;;;;;8.02;2.20;;;;;;;14.80;31.63;100840.22;5569191;32;33918;-56
2023/04/27 15:31:18;;;;;;;5.40;2.05;;;;;;;14.80;31.26;100843.75;5569136;32;34358;-56
2023/04/27 15:34:21;;;;;;;6.00;2.00;;;;;;;14.83;30.44;100836.13;5569151;32;33730;-56
2023/04/27 15:37:25;;;;;;;4.93;2.40;;;;;;;14.83;33.61;100836.91;5568977;32;33612;-56
2023/04/27 15:40:27;;;;;;;5.03;2.90;;;;;;;14.74;31.84;100836.03;5569123;32;34292;-56
